Time;durP1;ratioP1;P1;durP2;ratioP2;P2;SDS_P1;SDS_P2;PMS_P1;PMS_P2;Temp;Humidity;BMP_temperature;BMP_pressure;BME280_temperature;BME280_humidity;BME280_pressure;Samples;Min_cycle;Max_cycle;Signal;HPM_P1;HPM_P2
2023/08/18 00:02:23;;;;;;;5.22;2.45;;;16.80;99.90;;;;;;7369470;19;20585;-59
2023/08/18 00:04:49;;;;;;;8.88;2.75;;;16.70;99.90;;;;;;7367203;19;20054;-60
2023/08/18 00:07:16;;;;;;;5.78;2.83;;;16.70;99.90;;;;;;7372192;19;20019;-65
2023/08/18 00:09:45;;;;;;;5.25;2.65;;;16.70;99.90;;;;;;7372748;19;20392;-65
2023/08/18 00:12:11;;;;;;;7.18;2.85;;;16.70;99.90;;;;;;7373025;19;20019;-65
2023/08/18 00:14:37;;;;;;;4.65;2.72;;;16.70;99.90;;;;;;7369120;19;20026;-65
2023/08/18 00:17:04;;;;;;;5.45;2.35;;;16.70;99.90;;;;;;7372101;19;20029;-65
2023/08/18 00:19:31;;;;;;;4.47;2.75;;;16.70;99.90;;;;;;7369504;19;20026;-65
2023/08/18 00:21:58;;;;;;;5.28;2.67;;;16.70;99.90;;;;;;7372554;19;20822;-65
2023/08/18 00:24:24;;;;;;;5.72;2.30;;;16.70;99.90;;;;;;7368334;19;20029;-65
2023/08/18 00:26:53;;;;;;;6.05;2.20;;;16.60;99.90;;;;;;7370297;19;20022;-65
2023/08/18 00:29:19;;;;;;;6.38;2.53;;;16.60;99.90;;;;;;7367209;19;20034;-65
2023/08/18 00:31:49;;;;;;;4.32;2.35;;;16.60;99.90;;;;;;7367590;19;20379;-63
2023/08/18 00:34:15;;;;;;;4.18;2.30;;;16.60;99.90;;;;;;7368302;19;20470;-64
2023/08/18 00:36:42;;;;;;;3.95;2.38;;;16.50;99.90;;;;;;7364190;19;20025;-64
2023/08/18 00:39:08;;;;;;;4.28;2.10;;;16.50;99.90;;;;;;7367767;19;20442;-64
2023/08/18 00:41:34;;;;;;;4.80;2.17;;;16.60;99.90;;;;;;7362388;19;20033;-65
2023/08/18 00:44:01;;;;;;;6.07;2.47;;;16.60;99.90;;;;;;7366059;19;20454;-65
2023/08/18 00:46:27;;;;;;;6.65;2.72;;;16.60;99.90;;;;;;7370866;19;20030;-65
2023/08/18 00:48:58;;;;;;;6.68;2.72;;;16.60;99.90;;;;;;7370129;19;20375;-65
2023/08/18 00:51:24;;;;;;;4.85;2.35;;;16.60;99.90;;;;;;7367184;19;20022;-64
2023/08/18 00:53:51;;;;;;;8.00;2.80;;;16.50;99.90;;;;;;7373511;19;20014;-64
2023/08/18 00:56:17;;;;;;;4.53;2.40;;;16.50;99.90;;;;;;7369893;19;20608;-64
2023/08/18 00:58:44;;;;;;;3.65;2.42;;;16.50;99.90;;;;;;7369848;19;20018;-59
2023/08/18 01:01:11;;;;;;;5.43;2.78;;;16.50;99.90;;;;;;7364403;19;20778;-59
2023/08/18 01:03:39;;;;;;;5.07;2.80;;;16.50;99.90;;;;;;7371117;19;20018;-64
2023/08/18 01:06:05;;;;;;;6.05;3.00;;;16.50;99.90;;;;;;7372905;19;20493;-59
2023/08/18 01:08:32;;;;;;;6.40;3.30;;;16.50;99.90;;;;;;7369992;19;20035;-59
2023/08/18 01:11:02;;;;;;;6.05;3.40;;;16.60;99.90;;;;;;7368410;19;20019;-59
2023/08/18 01:13:39;;;;;;;6.38;2.65;;;16.60;99.90;;;;;;7366319;19;20034;-58
2023/08/18 01:16:14;;;;;;;7.18;3.45;;;16.50;99.90;;;;;;7367572;19;20020;-58
2023/08/18 01:18:42;;;;;;;6.90;3.10;;;16.50;99.90;;;;;;7364963;19;20042;-58
2023/08/18 01:21:11;;;;;;;5.53;3.10;;;16.50;99.90;;;;;;7357855;19;20090;-59
2023/08/18 01:23:39;;;;;;;8.18;2.97;;;16.50;99.90;;;;;;7367476;19;20020;-58
2023/08/18 01:26:06;;;;;;;6.00;2.75;;;16.50;99.90;;;;;;7369762;19;20745;-64
2023/08/18 01:28:33;;;;;;;5.63;3.10;;;16.50;99.90;;;;;;7364610;19;21394;-64
2023/08/18 01:31:04;;;;;;;5.57;3.25;;;16.50;99.90;;;;;;7364791;19;20747;-64
2023/08/18 01:33:52;;;;;;;5.00;2.50;;;16.50;99.90;;;;;;7362937;19;20010;-59
2023/08/18 01:36:22;;;;;;;8.40;2.70;;;16.60;99.90;;;;;;7358800;19;20018;-59
2023/08/18 01:38:52;;;;;;;4.70;2.65;;;16.50;99.90;;;;;;7363137;19;20042;-59
2023/08/18 01:41:22;;;;;;;5.22;2.33;;;16.50;99.90;;;;;;7353394;19;21379;-64
2023/08/18 01:43:48;;;;;;;5.07;2.30;;;16.60;99.90;;;;;;7361009;19;20034;-64
2023/08/18 01:46:16;;;;;;;4.88;2.78;;;16.60;99.90;;;;;;7355264;19;20041;-65
2023/08/18 01:48:42;;;;;;;4.57;2.80;;;16.60;99.90;;;;;;7359080;19;20023;-64
2023/08/18 01:51:08;;;;;;;6.93;2.80;;;16.50;99.90;;;;;;7361251;19;20906;-65
2023/08/18 01:53:35;;;;;;;5.53;2.78;;;16.50;99.90;;;;;;7358013;19;20014;-59
2023/08/18 01:56:02;;;;;;;5.70;2.67;;;16.50;99.90;;;;;;7361938;19;20022;-58
2023/08/18 01:58:29;;;;;;;5.70;2.85;;;16.50;99.90;;;;;;7356902;19;20010;-64
2023/08/18 02:00:56;;;;;;;7.95;2.95;;;16.50;99.90;;;;;;7360058;19;20915;-64
2023/08/18 02:03:26;;;;;;;9.43;2.80;;;16.50;99.90;;;;;;7361186;19;20227;-64
2023/08/18 02:05:53;;;;;;;6.78;2.47;;;16.50;99.90;;;;;;7369568;19;20501;-64
2023/08/18 02:08:21;;;;;;;4.78;2.17;;;16.50;99.90;;;;;;7366344;19;20558;-63
2023/08/18 02:10:47;;;;;;;6.60;2.88;;;16.50;99.90;;;;;;7366590;19;20022;-64
2023/08/18 02:13:15;;;;;;;6.00;3.33;;;16.50;99.90;;;;;;7371454;19;21295;-63
2023/08/18 02:15:44;;;;;;;15.73;3.50;;;16.50;99.90;;;;;;7370887;19;20052;-64
2023/08/18 02:18:10;;;;;;;10.57;4.88;;;16.50;99.90;;;;;;7373413;19;20792;-58
2023/08/18 02:20:38;;;;;;;8.50;4.25;;;16.40;99.90;;;;;;7371958;19;20077;-64
2023/08/18 02:23:05;;;;;;;9.73;4.43;;;16.40;99.90;;;;;;7373129;19;20030;-63
2023/08/18 02:25:32;;;;;;;8.15;4.60;;;16.40;99.90;;;;;;7371443;19;20922;-63
2023/08/18 02:27:58;;;;;;;7.43;4.35;;;16.40;99.90;;;;;;7372346;19;20518;-63
2023/08/18 02:30:26;;;;;;;7.20;4.05;;;16.40;99.90;;;;;;7373491;19;20836;-63
2023/08/18 02:32:52;;;;;;;9.00;4.60;;;16.40;99.90;;;;;;7371344;19;20022;-58
2023/08/18 02:35:19;;;;;;;10.18;4.65;;;16.40;99.90;;;;;;7369263;19;20018;-58
2023/08/18 02:37:45;;;;;;;12.02;6.22;;;16.40;99.90;;;;;;7368482;19;20462;-58
2023/08/18 02:40:11;;;;;;;9.73;4.60;;;16.40;99.90;;;;;;7367685;19;20023;-64
2023/08/18 02:42:38;;;;;;;7.30;4.28;;;16.40;99.90;;;;;;7368212;19;20781;-64
2023/08/18 02:45:04;;;;;;;8.25;3.72;;;16.40;99.90;;;;;;7364602;19;20022;-58
2023/08/18 02:47:30;;;;;;;8.80;4.15;;;16.40;99.90;;;;;;7364592;19;20490;-64
2023/08/18 02:49:57;;;;;;;10.43;3.95;;;16.40;99.90;;;;;;7357178;19;20022;-64
2023/08/18 02:52:23;;;;;;;10.02;4.00;;;16.40;99.90;;;;;;7367314;19;20018;-59
2023/08/18 02:54:50;;;;;;;10.05;3.78;;;16.30;99.90;;;;;;7364323;19;20023;-64
2023/08/18 02:57:16;;;;;;;8.50;3.70;;;16.30;99.90;;;;;;7364130;19;20382;-58
2023/08/18 02:59:42;;;;;;;7.63;4.30;;;16.30;99.90;;;;;;7371186;19;20022;-58
2023/08/18 03:02:09;;;;;;;8.10;3.85;;;16.30;99.90;;;;;;7368547;19;20040;-64
2023/08/18 03:04:35;;;;;;;7.38;3.80;;;16.30;99.90;;;;;;7371106;19;20351;-64
2023/08/18 03:07:02;;;;;;;8.95;4.78;;;16.30;99.90;;;;;;7368108;19;20026;-64
2023/08/18 03:09:28;;;;;;;7.35;4.40;;;16.30;99.90;;;;;;7371385;19;20048;-64
2023/08/18 03:11:54;;;;;;;9.55;3.97;;;16.30;99.90;;;;;;7372113;19;20106;-64
2023/08/18 03:14:20;;;;;;;13.85;4.60;;;16.30;99.90;;;;;;7369187;19;20022;-64
2023/08/18 03:16:46;;;;;;;10.32;4.90;;;16.30;99.90;;;;;;7374604;19;20018;-58
2023/08/18 03:19:13;;;;;;;8.27;4.18;;;16.40;99.90;;;;;;7374099;19;20025;-58
2023/08/18 03:21:39;;;;;;;8.30;4.05;;;16.40;99.90;;;;;;7361844;19;20019;-58
2023/08/18 03:24:05;;;;;;;7.20;4.00;;;16.40;99.90;;;;;;7361383;19;20019;-58
2023/08/18 03:26:32;;;;;;;7.88;4.20;;;16.30;99.90;;;;;;7364009;19;20315;-66
2023/08/18 03:28:59;;;;;;;8.82;4.10;;;16.30;99.90;;;;;;7361867;19;20019;-64
2023/08/18 03:31:26;;;;;;;11.75;5.03;;;16.30;99.90;;;;;;7365834;19;20108;-64
2023/08/18 03:33:52;;;;;;;8.77;4.45;;;16.30;99.90;;;;;;7365034;19;20957;-64
2023/08/18 03:36:20;;;;;;;7.97;4.40;;;16.30;99.90;;;;;;7364067;19;20018;-64
2023/08/18 03:38:46;;;;;;;9.18;4.50;;;16.30;99.90;;;;;;7367908;19;20018;-64
2023/08/18 03:41:14;;;;;;;7.45;4.68;;;16.30;99.90;;;;;;7357389;19;20042;-64
2023/08/18 03:43:41;;;;;;;9.25;4.50;;;16.30;99.90;;;;;;7365610;19;20014;-64
2023/08/18 03:46:23;;;;;;;9.68;4.80;;;16.30;99.90;;;;;;7362474;19;20018;-58
2023/08/18 03:48:52;;;;;;;7.38;4.25;;;16.40;99.90;;;;;;7369350;19;20623;-59
2023/08/18 03:51:19;;;;;;;7.20;4.10;;;16.30;99.90;;;;;;7368620;19;20014;-59
2023/08/18 03:53:46;;;;;;;7.18;4.00;;;16.30;99.90;;;;;;7367681;19;20024;-58
2023/08/18 03:56:12;;;;;;;9.02;4.25;;;16.40;99.90;;;;;;7369665;19;20042;-58
2023/08/18 03:58:38;;;;;;;9.35;5.20;;;16.40;99.90;;;;;;7368858;19;20014;-58
2023/08/18 04:01:08;;;;;;;11.98;4.25;;;16.40;99.90;;;;;;7370872;19;20018;-64
2023/08/18 04:03:36;;;;;;;8.25;5.05;;;16.40;99.90;;;;;;7367285;19;20022;-64
2023/08/18 04:06:03;;;;;;;7.25;4.70;;;16.30;99.90;;;;;;7369976;19;20474;-64
2023/08/18 04:08:34;;;;;;;9.40;4.70;;;16.40;99.90;;;;;;7369764;19;20068;-64
2023/08/18 04:11:00;;;;;;;9.43;4.93;;;16.40;99.90;;;;;;7368519;19;20023;-64
2023/08/18 04:13:26;;;;;;;6.93;4.35;;;16.30;99.90;;;;;;7365177;19;20259;-64
2023/08/18 04:15:52;;;;;;;7.22;4.53;;;16.40;99.90;;;;;;7369661;19;20014;-64
2023/08/18 04:18:19;;;;;;;9.25;5.03;;;16.30;99.90;;;;;;7368004;19;20018;-60
2023/08/18 04:20:46;;;;;;;8.75;4.95;;;16.40;99.90;;;;;;7368019;19;20015;-63
2023/08/18 04:23:13;;;;;;;8.80;4.47;;;16.40;99.90;;;;;;7365275;19;20022;-64
2023/08/18 04:25:42;;;;;;;11.00;4.70;;;16.40;99.90;;;;;;7368701;19;20022;-59
2023/08/18 04:28:09;;;;;;;8.97;5.20;;;16.30;99.90;;;;;;7370803;19;20603;-65
2023/08/18 04:30:37;;;;;;;6.53;5.07;;;16.40;99.90;;;;;;7369319;19;20029;-64
2023/08/18 04:33:04;;;;;;;10.32;5.05;;;16.40;99.90;;;;;;7368804;19;20029;-66
2023/08/18 04:35:30;;;;;;;9.60;5.63;;;16.40;99.90;;;;;;7370211;19;20025;-66
2023/08/18 04:37:57;;;;;;;9.07;5.00;;;16.40;99.90;;;;;;7373798;19;20552;-67
2023/08/18 04:40:24;;;;;;;7.35;5.13;;;16.40;99.90;;;;;;7371207;19;20022;-67
2023/08/18 04:42:52;;;;;;;7.82;4.68;;;16.40;99.90;;;;;;7371696;19;20021;-66
2023/08/18 04:45:19;;;;;;;6.85;5.05;;;16.40;99.90;;;;;;7373608;19;20022;-66
2023/08/18 04:47:45;;;;;;;6.97;5.10;;;16.40;99.90;;;;;;7373431;19;20018;-58
2023/08/18 04:50:12;;;;;;;8.95;4.97;;;16.40;99.90;;;;;;7369688;19;20018;-58
2023/08/18 04:52:38;;;;;;;9.18;5.65;;;16.40;99.90;;;;;;7366712;19;20022;-58
2023/08/18 04:55:05;;;;;;;6.50;4.80;;;16.50;99.90;;;;;;7368844;19;20029;-58
2023/08/18 04:57:31;;;;;;;10.93;6.18;;;16.40;99.90;;;;;;7367563;19;20021;-58
2023/08/18 05:00:01;;;;;;;8.07;5.45;;;16.50;99.90;;;;;;7365511;19;20014;-65
2023/08/18 05:02:28;;;;;;;8.57;5.95;;;16.50;99.90;;;;;;7369447;19;20482;-58
2023/08/18 05:04:54;;;;;;;7.90;5.45;;;16.50;99.90;;;;;;7364772;19;20911;-58
2023/08/18 05:07:21;;;;;;;9.77;5.45;;;16.50;99.90;;;;;;7370024;19;20074;-59
2023/08/18 05:09:48;;;;;;;8.00;5.65;;;16.50;99.90;;;;;;7364398;19;20190;-66
2023/08/18 05:12:14;;;;;;;9.77;6.10;;;16.60;99.90;;;;;;7369047;19;20520;-58
2023/08/18 05:14:40;;;;;;;7.97;5.25;;;16.60;99.90;;;;;;7364937;19;20019;-58
2023/08/18 05:17:06;;;;;;;10.73;5.95;;;16.60;99.90;;;;;;7367050;19;20762;-58
2023/08/18 05:19:33;;;;;;;8.63;5.63;;;16.60;99.90;;;;;;7363345;19;20112;-58
2023/08/18 05:22:00;;;;;;;6.93;5.22;;;16.60;99.90;;;;;;7366172;19;20370;-58
2023/08/18 05:24:26;;;;;;;11.65;6.30;;;16.60;99.90;;;;;;7364191;19;20793;-59
2023/08/18 05:26:52;;;;;;;8.23;5.05;;;16.70;99.90;;;;;;7365198;19;20022;-59
2023/08/18 05:29:19;;;;;;;8.82;5.55;;;16.70;99.90;;;;;;7367685;19;20488;-67
2023/08/18 05:31:46;;;;;;;9.13;5.47;;;16.70;99.90;;;;;;7368273;19;20022;-67
2023/08/18 05:34:12;;;;;;;7.32;5.35;;;16.70;99.90;;;;;;7369182;19;20371;-68
2023/08/18 05:36:38;;;;;;;7.35;5.43;;;16.80;99.90;;;;;;7367373;19;20877;-57
2023/08/18 05:39:05;;;;;;;9.18;5.60;;;16.80;99.90;;;;;;7367062;19;20584;-58
2023/08/18 05:41:31;;;;;;;6.78;5.53;;;16.90;99.90;;;;;;7366195;19;20039;-58
2023/08/18 05:43:57;;;;;;;6.90;5.65;;;16.90;99.90;;;;;;7370551;19;20021;-57
2023/08/18 05:46:23;;;;;;;7.85;6.22;;;16.90;99.90;;;;;;7372415;19;20019;-58
2023/08/18 05:48:49;;;;;;;9.60;5.28;;;17.00;99.90;;;;;;7370575;19;20042;-58
2023/08/18 05:51:16;;;;;;;12.20;8.95;;;17.00;99.90;;;;;;7372907;19;20023;-58
2023/08/18 05:53:42;;;;;;;9.80;5.68;;;17.00;99.90;;;;;;7372544;19;20011;-59
2023/08/18 05:56:08;;;;;;;12.88;6.65;;;17.00;99.90;;;;;;7377169;19;20029;-66
2023/08/18 05:58:34;;;;;;;12.20;6.47;;;16.90;99.90;;;;;;7379218;19;20493;-66
2023/08/18 06:01:01;;;;;;;14.05;9.48;;;16.90;99.90;;;;;;7377149;19;20014;-66
2023/08/18 06:03:27;;;;;;;11.52;7.13;;;16.90;99.90;;;;;;7370541;19;20945;-58
2023/08/18 06:05:54;;;;;;;9.80;7.38;;;16.90;99.90;;;;;;7376183;19;20019;-66
2023/08/18 06:08:20;;;;;;;11.02;8.15;;;16.90;99.90;;;;;;7373818;19;20029;-67
2023/08/18 06:10:47;;;;;;;16.25;8.35;;;16.90;99.90;;;;;;7371076;19;20037;-67
2023/08/18 06:13:13;;;;;;;13.23;8.82;;;16.90;99.90;;;;;;7378992;19;21098;-67
2023/08/18 06:15:39;;;;;;;15.10;9.40;;;16.90;99.90;;;;;;7375624;19;20022;-66
2023/08/18 06:18:06;;;;;;;15.20;9.95;;;16.90;99.90;;;;;;7376548;19;20053;-67
2023/08/18 06:20:32;;;;;;;12.68;8.60;;;16.90;99.90;;;;;;7374401;19;20089;-66
2023/08/18 06:22:58;;;;;;;17.67;9.15;;;16.90;99.90;;;;;;7378269;19;20026;-67
2023/08/18 06:25:25;;;;;;;17.13;9.25;;;16.90;99.90;;;;;;7372076;19;20017;-58
2023/08/18 06:27:51;;;;;;;16.25;9.38;;;17.00;99.90;;;;;;7372889;19;20060;-58
2023/08/18 06:30:18;;;;;;;17.75;11.98;;;16.90;99.90;;;;;;7372108;19;20015;-66
2023/08/18 06:32:45;;;;;;;14.98;9.20;;;17.00;99.90;;;;;;7379198;19;20029;-67
2023/08/18 06:35:12;;;;;;;16.95;9.73;;;17.00;99.90;;;;;;7376866;19;20010;-67
2023/08/18 06:37:38;;;;;;;14.40;8.73;;;17.00;99.90;;;;;;7374511;19;20090;-69
2023/08/18 06:40:05;;;;;;;13.73;8.52;;;17.10;99.90;;;;;;7374264;19;20026;-66
2023/08/18 06:42:31;;;;;;;13.93;8.90;;;17.10;99.90;;;;;;7375643;19;20069;-66
2023/08/18 06:45:03;;;;;;;14.43;8.63;;;17.20;99.90;;;;;;7376003;19;20026;-69
2023/08/18 06:47:30;;;;;;;17.73;8.20;;;17.20;99.90;;;;;;7373314;19;20725;-70
2023/08/18 06:49:56;;;;;;;13.35;8.07;;;17.30;99.90;;;;;;7373292;19;20470;-69
2023/08/18 06:52:22;;;;;;;12.02;7.88;;;17.30;99.90;;;;;;7370138;19;20022;-69
2023/08/18 06:54:49;;;;;;;11.23;7.80;;;17.30;99.90;;;;;;7374640;19;20023;-70
2023/08/18 06:57:15;;;;;;;13.98;8.80;;;17.40;99.90;;;;;;7369935;19;21628;-71
2023/08/18 06:59:41;;;;;;;11.52;7.80;;;17.50;99.90;;;;;;7372500;19;20611;-71
2023/08/18 07:02:08;;;;;;;10.48;8.50;;;17.50;99.90;;;;;;7367932;19;20029;-71
2023/08/18 07:04:34;;;;;;;9.80;8.43;;;17.50;99.90;;;;;;7369944;19;20453;-70
2023/08/18 07:07:00;;;;;;;13.75;8.68;;;17.50;99.90;;;;;;7370214;19;20014;-70
2023/08/18 07:09:27;;;;;;;16.27;11.05;;;17.50;99.90;;;;;;7372782;19;20482;-59
2023/08/18 07:11:56;;;;;;;18.38;9.88;;;17.50;99.90;;;;;;7370191;19;20801;-59
2023/08/18 07:14:22;;;;;;;20.73;11.85;;;17.50;99.90;;;;;;7369585;19;20473;-59
2023/08/18 07:16:49;;;;;;;16.20;10.02;;;17.50;99.90;;;;;;7371073;19;20022;-57
2023/08/18 07:19:15;;;;;;;16.33;9.30;;;17.60;99.90;;;;;;7367697;19;20021;-58
2023/08/18 07:21:42;;;;;;;18.50;9.93;;;17.60;99.90;;;;;;7370805;19;20014;-60
2023/08/18 07:24:08;;;;;;;16.35;10.50;;;17.70;99.90;;;;;;7368600;19;20046;-58
2023/08/18 07:26:34;;;;;;;19.15;9.60;;;17.70;99.90;;;;;;7370695;19;20010;-59
2023/08/18 07:29:04;;;;;;;18.25;10.10;;;17.80;99.90;;;;;;7371557;19;20015;-60
2023/08/18 07:31:32;;;;;;;23.80;11.07;;;17.80;99.90;;;;;;7370489;19;20025;-59
2023/08/18 07:33:58;;;;;;;18.65;11.38;;;17.90;99.90;;;;;;7370481;19;20019;-60
2023/08/18 07:36:25;;;;;;;15.85;9.88;;;17.90;99.90;;;;;;7368765;19;20731;-60
2023/08/18 07:38:51;;;;;;;18.42;9.77;;;18.00;99.90;;;;;;7368430;19;20018;-68
2023/08/18 07:41:17;;;;;;;16.50;9.75;;;18.10;99.90;;;;;;7367794;19;20018;-66
2023/08/18 07:43:43;;;;;;;16.65;9.98;;;18.10;99.90;;;;;;7373845;19;20052;-67
2023/08/18 07:46:10;;;;;;;15.15;10.13;;;18.20;99.90;;;;;;7365357;19;20018;-65
2023/08/18 07:48:37;;;;;;;16.92;9.15;;;18.30;99.90;;;;;;7368317;19;20046;-64
2023/08/18 07:51:03;;;;;;;23.17;14.80;;;18.30;99.90;;;;;;7365727;19;20033;-64
2023/08/18 07:53:30;;;;;;;18.77;9.65;;;18.30;99.90;;;;;;7368272;19;20119;-64
2023/08/18 07:55:56;;;;;;;17.45;9.38;;;18.30;99.90;;;;;;7367080;19;20011;-65
2023/08/18 07:58:23;;;;;;;17.35;9.00;;;18.30;99.90;;;;;;7364047;19;20030;-67
2023/08/18 08:00:50;;;;;;;14.00;8.80;;;18.40;99.90;;;;;;7365460;19;20025;-66
2023/08/18 08:03:16;;;;;;;19.73;9.15;;;18.50;99.90;;;;;;7368378;19;20037;-67
2023/08/18 08:05:43;;;;;;;14.85;8.80;;;18.50;99.90;;;;;;7345532;19;20028;-66
2023/08/18 08:08:10;;;;;;;16.33;9.52;;;18.40;99.90;;;;;;7363905;19;20018;-67
2023/08/18 08:10:37;;;;;;;16.65;9.63;;;18.30;99.90;;;;;;7343596;19;20018;-66
2023/08/18 08:13:03;;;;;;;13.30;8.80;;;18.30;99.90;;;;;;7368955;19;20035;-66
2023/08/18 08:15:30;;;;;;;15.60;9.20;;;18.30;99.90;;;;;;7364733;19;20019;-57
2023/08/18 08:17:56;;;;;;;18.52;9.38;;;18.40;99.90;;;;;;7369167;19;20086;-60
2023/08/18 08:20:24;;;;;;;16.02;9.07;;;18.50;99.90;;;;;;7363698;19;20015;-58
2023/08/18 08:22:50;;;;;;;13.02;9.68;;;18.40;99.90;;;;;;7367142;19;20027;-59
2023/08/18 08:25:17;;;;;;;15.77;9.23;;;18.50;99.90;;;;;;7369714;19;20022;-59
2023/08/18 08:27:44;;;;;;;16.38;11.45;;;18.50;99.90;;;;;;7370844;19;20078;-58
2023/08/18 08:30:12;;;;;;;20.45;11.07;;;18.50;99.90;;;;;;7362054;19;20118;-58
2023/08/18 08:32:39;;;;;;;17.40;10.60;;;18.50;99.90;;;;;;7364235;19;21203;-58
2023/08/18 08:35:06;;;;;;;19.33;11.65;;;18.60;99.90;;;;;;7366928;19;20015;-58
2023/08/18 08:37:32;;;;;;;18.20;11.07;;;18.70;99.90;;;;;;7344663;19;20082;-58
2023/08/18 08:40:01;;;;;;;17.23;10.98;;;18.80;99.90;;;;;;7361232;19;20022;-58
2023/08/18 08:42:28;;;;;;;19.38;10.55;;;19.00;99.90;;;;;;7365229;19;20018;-59
2023/08/18 08:44:54;;;;;;;19.10;10.57;;;19.20;99.90;;;;;;7363257;19;20511;-58
2023/08/18 08:47:20;;;;;;;17.98;10.98;;;19.20;99.90;;;;;;7360932;19;20783;-58
2023/08/18 08:49:51;;;;;;;16.27;9.75;;;19.40;99.90;;;;;;7362575;19;20018;-56
2023/08/18 08:52:18;;;;;;;17.37;9.37;;;19.60;99.90;;;;;;7364735;19;20746;-58
2023/08/18 08:55:01;;;;;;;19.95;13.70;;;19.80;99.90;;;;;;7363465;19;20283;-58
2023/08/18 08:57:27;;;;;;;27.23;20.75;;;20.00;99.90;;;;;;7366458;19;20030;-57
2023/08/18 08:59:54;;;;;;;17.77;9.38;;;20.10;99.90;;;;;;7363513;19;21952;-57
2023/08/18 09:02:21;;;;;;;17.67;11.57;;;20.20;99.90;;;;;;7367547;19;20027;-57
2023/08/18 09:04:47;;;;;;;17.88;10.30;;;20.40;99.90;;;;;;7359671;19;20030;-57
2023/08/18 09:07:14;;;;;;;17.70;11.35;;;20.50;99.90;;;;;;7365312;19;20015;-57
2023/08/18 09:09:41;;;;;;;19.85;10.13;;;20.70;99.90;;;;;;7362314;19;20030;-57
2023/08/18 09:12:08;;;;;;;16.77;9.52;;;20.80;99.90;;;;;;7356445;19;20035;-65
2023/08/18 09:14:37;;;;;;;17.58;10.10;;;20.90;99.90;;;;;;7364350;19;20015;-65
2023/08/18 09:17:03;;;;;;;16.15;10.10;;;20.80;99.90;;;;;;7364013;19;20474;-68
2023/08/18 09:19:30;;;;;;;18.25;13.93;;;20.90;99.90;;;;;;7363575;19;20098;-64
2023/08/18 09:21:58;;;;;;;16.08;10.40;;;20.90;99.90;;;;;;7361545;19;20058;-65
2023/08/18 09:24:25;;;;;;;17.80;9.80;;;20.80;99.90;;;;;;7369240;19;20816;-65
2023/08/18 09:26:52;;;;;;;17.23;9.68;;;20.80;99.90;;;;;;7360815;19;20077;-57
2023/08/18 09:29:21;;;;;;;17.30;9.85;;;20.70;99.90;;;;;;7362221;19;20014;-57
2023/08/18 09:31:49;;;;;;;17.45;9.90;;;20.70;99.90;;;;;;7361211;19;20058;-65
2023/08/18 09:34:20;;;;;;;18.08;10.75;;;20.80;99.90;;;;;;7367440;19;20010;-65
2023/08/18 09:36:52;;;;;;;15.35;9.32;;;20.80;99.90;;;;;;7359109;19;20014;-57
2023/08/18 09:39:19;;;;;;;16.63;9.30;;;20.80;99.90;;;;;;7368078;19;20022;-56
2023/08/18 09:41:52;;;;;;;12.85;8.30;;;20.70;99.90;;;;;;7356363;19;20620;-65
2023/08/18 09:44:20;;;;;;;13.70;8.57;;;20.70;99.90;;;;;;7373201;19;20017;-66
2023/08/18 09:46:57;;;;;;;16.50;9.13;;;20.70;99.90;;;;;;7370038;19;20101;-65
2023/08/18 09:49:24;;;;;;;12.82;8.77;;;20.70;99.90;;;;;;7367641;19;20102;-66
2023/08/18 09:51:52;;;;;;;11.15;8.40;;;20.80;99.90;;;;;;7368046;19;20019;-66
2023/08/18 09:54:20;;;;;;;12.73;8.25;;;20.80;99.90;;;;;;7366296;19;20029;-58
2023/08/18 09:56:49;;;;;;;13.25;8.90;;;20.90;99.90;;;;;;7363575;19;20026;-57
2023/08/18 09:59:37;;;;;;;10.43;8.48;;;20.80;99.90;;;;;;7363408;19;20094;-57
2023/08/18 10:02:04;;;;;;;15.73;11.50;;;20.80;99.90;;;;;;7364012;19;20022;-64
2023/08/18 10:04:39;;;;;;;11.52;8.48;;;20.90;99.90;;;;;;7369576;19;20474;-64
2023/08/18 10:07:06;;;;;;;12.35;8.65;;;20.90;99.90;;;;;;7369925;19;20054;-66
2023/08/18 10:09:33;;;;;;;14.27;8.27;;;21.00;99.90;;;;;;7369713;19;20512;-65
2023/08/18 10:12:01;;;;;;;13.15;10.10;;;21.00;99.90;;;;;;7370647;19;20860;-66
2023/08/18 10:14:31;;;;;;;13.77;8.20;;;21.10;99.90;;;;;;7367062;19;20018;-65
2023/08/18 10:16:59;;;;;;;13.10;10.10;;;21.30;99.90;;;;;;7369803;19;20470;-66
2023/08/18 10:19:44;;;;;;;11.30;8.95;;;21.30;99.90;;;;;;7368811;19;20019;-66
2023/08/18 10:22:10;;;;;;;12.85;9.18;;;21.40;99.90;;;;;;7372940;19;20021;-66
2023/08/18 10:24:37;;;;;;;12.85;8.23;;;21.30;99.90;;;;;;7363893;19;20587;-57
2023/08/18 10:27:07;;;;;;;13.70;9.57;;;21.50;99.90;;;;;;7369223;19;20382;-57
2023/08/18 10:29:35;;;;;;;13.38;9.25;;;21.60;99.90;;;;;;7369535;19;20676;-58
2023/08/18 10:32:08;;;;;;;15.30;8.50;;;21.60;99.90;;;;;;7367274;19;20757;-58
2023/08/18 10:34:38;;;;;;;13.63;8.15;;;21.90;99.90;;;;;;7371384;19;20070;-58
2023/08/18 10:37:04;;;;;;;11.63;8.35;;;21.90;99.90;;;;;;7370378;19;20018;-58
2023/08/18 10:39:36;;;;;;;14.18;8.50;;;21.90;99.90;;;;;;7370071;19;20099;-58
2023/08/18 10:42:13;;;;;;;21.35;16.98;;;21.90;99.90;;;;;;7365306;19;20045;-57
2023/08/18 10:45:01;;;;;;;14.13;9.48;;;21.90;99.90;;;;;;7370377;19;20083;-58
2023/08/18 10:47:32;;;;;;;23.83;17.83;;;21.90;99.90;;;;;;7370086;19;20022;-58
2023/08/18 10:50:00;;;;;;;15.45;9.70;;;21.90;99.90;;;;;;7370700;19;20519;-58
2023/08/18 10:52:30;;;;;;;10.30;9.20;;;21.90;99.90;;;;;;7374408;19;20085;-58
2023/08/18 10:54:57;;;;;;;11.68;8.43;;;22.00;99.90;;;;;;7369889;19;20592;-59
2023/08/18 10:57:24;;;;;;;11.43;8.15;;;22.10;99.90;;;;;;7370726;19;20868;-58
2023/08/18 10:59:50;;;;;;;9.40;8.00;;;22.20;99.90;;;;;;7361844;19;20019;-58
2023/08/18 11:02:19;;;;;;;10.93;8.82;;;22.40;99.90;;;;;;7367227;19;20239;-58
2023/08/18 11:04:46;;;;;;;28.95;25.95;;;22.40;99.90;;;;;;7365102;19;20300;-58
2023/08/18 11:07:12;;;;;;;10.80;8.38;;;22.60;99.90;;;;;;7373632;19;20022;-58
2023/08/18 11:09:38;;;;;;;10.98;9.43;;;22.90;99.90;;;;;;7367041;19;20015;-58
2023/08/18 11:12:07;;;;;;;11.32;9.00;;;23.00;99.90;;;;;;7370711;19;20018;-59
2023/08/18 11:14:33;;;;;;;10.80;8.73;;;23.10;99.90;;;;;;7377443;19;20010;-65
2023/08/18 11:17:00;;;;;;;11.10;9.73;;;23.30;99.90;;;;;;7380786;19;20022;-66
2023/08/18 11:19:26;;;;;;;9.95;8.45;;;23.40;99.90;;;;;;7380860;19;23146;-66
2023/08/18 11:21:52;;;;;;;9.93;7.90;;;23.40;99.90;;;;;;7375840;19;20978;-67
2023/08/18 11:24:18;;;;;;;11.02;7.65;;;23.70;99.90;;;;;;7380816;19;20022;-66
2023/08/18 11:26:46;;;;;;;11.60;8.15;;;24.00;99.90;;;;;;7379300;19;20018;-58
2023/08/18 11:29:12;;;;;;;9.38;8.13;;;24.50;99.90;;;;;;7371307;19;20018;-58
2023/08/18 11:31:38;;;;;;;10.02;7.32;;;24.50;99.90;;;;;;7369067;19;20014;-59
2023/08/18 11:34:07;;;;;;;9.30;8.10;;;25.00;99.90;;;;;;7366889;19;20022;-59
2023/08/18 11:36:34;;;;;;;9.60;8.38;;;24.80;99.90;;;;;;7366174;19;20620;-58
2023/08/18 11:39:07;;;;;;;12.63;9.73;;;25.20;99.90;;;;;;7370955;19;20022;-58
2023/08/18 11:41:38;;;;;;;10.27;8.77;;;25.40;99.90;;;;;;7371564;19;20029;-65
2023/08/18 11:44:07;;;;;;;12.02;10.30;;;25.70;99.90;;;;;;7378499;19;20052;-58
2023/08/18 11:46:35;;;;;;;10.05;8.93;;;26.10;99.90;;;;;;7367527;19;20076;-59
2023/08/18 11:49:03;;;;;;;9.77;8.77;;;25.90;99.90;;;;;;7369856;19;20504;-66
2023/08/18 11:51:30;;;;;;;10.23;9.23;;;26.30;99.90;;;;;;7370763;19;20414;-59
2023/08/18 11:53:57;;;;;;;9.85;8.50;;;26.80;99.90;;;;;;7366642;19;20037;-59
2023/08/18 11:56:26;;;;;;;22.15;19.90;;;27.50;99.90;;;;;;7369878;19;20035;-58
2023/08/18 11:58:52;;;;;;;12.57;8.45;;;27.80;99.90;;;;;;7370050;19;20490;-65
2023/08/18 12:01:19;;;;;;;11.15;8.10;;;28.40;99.90;;;;;;7371171;19;20011;-67
2023/08/18 12:03:54;;;;;;;9.15;8.20;;;29.10;99.90;;;;;;7371177;19;20043;-60
2023/08/18 12:06:24;;;;;;;9.85;7.93;;;29.30;99.90;;;;;;7369996;19;20023;-59
2023/08/18 12:08:51;;;;;;;25.98;23.52;;;29.30;99.90;;;;;;7364473;19;20070;-58
2023/08/18 12:11:17;;;;;;;9.27;8.40;;;29.70;99.90;;;;;;7371232;19;20366;-58
2023/08/18 12:13:43;;;;;;;10.80;8.25;;;29.60;99.90;;;;;;7368684;19;20048;-58
2023/08/18 12:16:09;;;;;;;10.00;8.85;;;28.90;99.90;;;;;;7375212;19;20011;-65
2023/08/18 12:18:35;;;;;;;9.68;8.25;;;28.40;99.90;;;;;;7369329;19;20023;-59
2023/08/18 12:21:02;;;;;;;10.48;9.20;;;27.80;99.90;;;;;;7368805;19;20030;-57
2023/08/18 12:23:29;;;;;;;9.60;8.40;;;27.30;99.90;;;;;;7364654;19;20018;-57
2023/08/18 12:25:55;;;;;;;14.73;12.90;;;27.20;99.90;;;;;;7366887;19;20598;-58
2023/08/18 12:28:22;;;;;;;11.30;9.18;;;26.80;99.90;;;;;;7362127;19;20766;-57
2023/08/18 12:30:48;;;;;;;22.23;19.80;;;27.20;99.90;;;;;;7363458;19;20020;-57
2023/08/18 12:33:15;;;;;;;13.77;12.32;;;27.20;99.90;;;;;;7373053;19;20078;-57
2023/08/18 12:35:41;;;;;;;18.92;16.02;;;27.10;99.90;;;;;;7368220;19;20375;-58
2023/08/18 12:38:08;;;;;;;38.53;34.92;;;27.80;99.90;;;;;;7371403;19;20088;-58
2023/08/18 12:40:35;;;;;;;15.35;13.90;;;28.90;99.90;;;;;;7361422;19;20110;-58
2023/08/18 12:43:02;;;;;;;14.43;12.70;;;29.40;99.90;;;;;;7375682;19;20014;-58